Time;durP1;ratioP1;P1;durP2;ratioP2;P2;SDS_P1;SDS_P2;PMS_P1;PMS_P2;Temp;Humidity;BMP_temperature;BMP_pressure;BME280_temperature;BME280_humidity;BME280_pressure;Samples;Min_cycle;Max_cycle;Signal;HPM_P1;HPM_P2
2024/01/03 00:01:10;;;;;;;20.58;11.82;;;;;;;8.28;75.45;100577.88;5088346;28;20066;-77
2024/01/03 00:03:36;;;;;;;20.58;12.95;;;;;;;8.22;75.05;100570.25;5088068;28;20070;-75
2024/01/03 00:06:02;;;;;;;23.33;12.88;;;;;;;8.13;74.77;100569.06;5088166;28;20476;-74
2024/01/03 00:08:32;;;;;;;19.42;12.23;;;;;;;8.08;74.92;100556.97;5087923;28;20030;-75
2024/01/03 00:10:58;;;;;;;19.15;11.90;;;;;;;8.19;74.85;100559.75;5088074;28;20154;-76
2024/01/03 00:13:47;;;;;;;15.40;11.13;;;;;;;8.30;74.66;100572.41;5087997;28;20036;-76
2024/01/03 00:16:23;;;;;;;14.88;10.63;;;;;;;8.34;74.18;100553.31;5087908;28;20036;-74
2024/01/03 00:18:56;;;;;;;14.55;9.57;;;;;;;8.26;73.95;100528.84;5087880;28;20032;-76
2024/01/03 00:21:25;;;;;;;14.18;8.45;;;;;;;8.40;73.56;100550.19;5088010;28;20036;-75
2024/01/03 00:23:55;;;;;;;17.23;9.80;;;;;;;8.42;73.56;100542.00;5087942;28;20465;-76
2024/01/03 00:26:28;;;;;;;15.52;10.10;;;;;;;8.43;73.59;100547.28;5088017;28;20054;-74
2024/01/03 00:28:54;;;;;;;15.35;9.30;;;;;;;8.31;73.11;100540.16;5088801;28;20028;-75
2024/01/03 00:31:23;;;;;;;21.25;12.30;;;;;;;8.38;73.38;100548.59;5088288;28;20036;-74
2024/01/03 00:33:49;;;;;;;19.77;11.48;;;;;;;8.34;73.09;100547.97;5089497;28;20047;-75
2024/01/03 00:36:15;;;;;;;19.35;12.88;;;;;;;8.22;73.25;100530.06;5094074;28;20031;-74
2024/01/03 00:38:42;;;;;;;21.05;12.77;;;;;;;8.31;72.67;100553.53;5090994;28;20024;-74
2024/01/03 00:41:12;;;;;;;23.52;15.10;;;;;;;8.27;72.57;100561.88;5086674;28;20042;-76
2024/01/03 00:43:40;;;;;;;25.60;16.42;;;;;;;7.99;72.66;100549.63;5087808;28;20028;-75
2024/01/03 00:46:08;;;;;;;30.90;18.40;;;;;;;7.90;72.93;100560.97;5090298;28;20047;-76
2024/01/03 00:48:34;;;;;;;34.45;21.13;;;;;;;7.83;73.75;100567.75;5092169;28;20028;-74
2024/01/03 00:51:00;;;;;;;32.03;19.30;;;;;;;7.81;74.23;100556.28;5091923;28;20081;-76
2024/01/03 00:53:26;;;;;;;35.83;18.58;;;;;;;7.79;75.22;100550.19;5091777;28;20488;-74
2024/01/03 00:55:52;;;;;;;35.45;20.75;;;;;;;7.79;75.61;100555.53;5089182;28;20051;-76
2024/01/03 00:58:18;;;;;;;40.17;20.17;;;;;;;7.77;75.88;100546.78;5091490;28;20152;-75
2024/01/03 01:00:45;;;;;;;37.80;19.95;;;;;;;7.75;75.47;100549.56;5091567;28;20081;-75
2024/01/03 01:03:11;;;;;;;29.20;18.05;;;;;;;7.74;75.64;100541.63;5091615;28;20027;-74
2024/01/03 01:05:36;;;;;;;23.92;16.50;;;;;;;7.77;75.28;100538.75;5091648;28;20032;-74
2024/01/03 01:08:02;;;;;;;23.17;13.95;;;;;;;7.74;75.60;100534.44;5091889;28;20032;-75
2024/01/03 01:10:28;;;;;;;23.55;14.63;;;;;;;7.71;75.08;100529.31;5090086;28;20502;-74
2024/01/03 01:12:54;;;;;;;18.33;12.93;;;;;;;7.54;74.57;100502.91;5091397;28;20020;-75
2024/01/03 01:15:19;;;;;;;26.88;14.25;;;;;;;7.51;74.85;100505.78;5091458;28;20020;-74
2024/01/03 01:17:45;;;;;;;18.48;13.20;;;;;;;7.64;75.01;100515.50;5091436;28;20043;-75
2024/01/03 01:20:10;;;;;;;19.58;12.85;;;;;;;7.45;74.97;100491.03;5092101;28;20050;-75
2024/01/03 01:22:36;;;;;;;19.40;11.90;;;;;;;7.47;75.17;100494.44;5091483;28;20154;-76
2024/01/03 01:25:01;;;;;;;17.20;11.02;;;;;;;7.32;74.74;100470.59;5089903;28;20076;-74
2024/01/03 01:27:27;;;;;;;14.65;9.60;;;;;;;7.56;75.15;100501.81;5097152;28;20032;-76
2024/01/03 01:29:52;;;;;;;15.90;9.75;;;;;;;7.42;74.81;100477.00;5093605;28;20396;-75
2024/01/03 01:32:18;;;;;;;9.88;7.63;;;;;;;7.39;74.30;100475.41;5091028;28;20016;-75
2024/01/03 01:34:43;;;;;;;14.75;9.05;;;;;;;7.50;74.86;100486.19;5091249;28;20040;-76
2024/01/03 01:37:09;;;;;;;13.77;8.32;;;;;;;7.45;74.74;100493.69;5091097;28;20119;-77
2024/01/03 01:39:34;;;;;;;13.98;7.88;;;;;;;7.44;75.06;100486.63;5090654;28;20031;-75
2024/01/03 01:42:00;;;;;;;15.73;9.85;;;;;;;7.42;74.95;100493.91;5090743;28;20028;-75
2024/01/03 01:44:25;;;;;;;13.38;7.53;;;;;;;7.41;75.19;100494.00;5090698;28;20092;-76
2024/01/03 01:46:52;;;;;;;7.82;5.90;;;;;;;7.38;75.45;100479.03;5090745;28;20058;-77
2024/01/03 01:49:19;;;;;;;8.93;5.63;;;;;;;7.24;75.31;100456.91;5090647;28;20032;-76
2024/01/03 01:51:45;;;;;;;11.68;6.88;;;;;;;7.35;75.19;100465.88;5090837;28;20024;-76
2024/01/03 01:54:13;;;;;;;9.05;6.63;;;;;;;7.26;75.43;100452.28;5090640;28;20039;-75
2024/01/03 01:56:39;;;;;;;10.82;7.25;;;;;;;7.47;75.53;100480.19;5089574;28;21060;-74
2024/01/03 01:59:07;;;;;;;9.05;7.13;;;;;;;7.48;75.86;100472.09;5090386;28;20464;-74
2024/01/03 02:01:36;;;;;;;10.80;7.10;;;;;;;7.45;75.31;100464.28;5090704;28;20027;-75
2024/01/03 02:04:07;;;;;;;8.50;5.78;;;;;;;7.45;75.62;100466.09;5090673;28;20042;-74
2024/01/03 02:06:34;;;;;;;12.98;5.78;;;;;;;7.51;75.77;100455.81;5088838;28;20027;-75
2024/01/03 02:08:59;;;;;;;8.10;5.57;;;;;;;7.53;75.41;100453.88;5091049;28;20030;-74
2024/01/03 02:11:25;;;;;;;7.13;6.07;;;;;;;7.60;75.31;100456.97;5090442;28;20036;-75
2024/01/03 02:13:51;;;;;;;8.48;5.63;;;;;;;7.42;75.67;100452.94;5090596;28;20483;-74
2024/01/03 02:16:17;;;;;;;9.00;6.38;;;;;;;7.51;75.76;100445.09;5090383;28;20058;-74
2024/01/03 02:18:43;;;;;;;11.85;5.68;;;;;;;7.35;76.04;100414.19;5090955;28;20503;-76
2024/01/03 02:21:16;;;;;;;9.13;5.72;;;;;;;7.31;76.06;100410.88;5090099;28;20020;-76
2024/01/03 02:23:43;;;;;;;6.80;5.88;;;;;;;7.49;75.64;100430.97;5090108;28;20028;-75
2024/01/03 02:26:08;;;;;;;9.63;6.43;;;;;;;7.66;76.46;100437.78;5090136;28;20055;-74
2024/01/03 02:28:34;;;;;;;8.55;5.00;;;;;;;7.63;75.83;100441.53;5104425;28;20044;-75
2024/01/03 02:31:00;;;;;;;5.78;5.28;;;;;;;7.76;75.56;100443.34;5089692;28;20032;-76
2024/01/03 02:33:25;;;;;;;8.90;5.70;;;;;;;7.81;75.40;100427.78;5089820;28;20574;-76
2024/01/03 02:35:51;;;;;;;6.45;5.00;;;;;;;7.96;75.33;100445.41;5089431;28;20020;-75
2024/01/03 02:38:17;;;;;;;8.48;5.35;;;;;;;8.01;75.31;100429.88;5089635;28;20028;-75
2024/01/03 02:40:44;;;;;;;10.57;5.32;;;;;;;8.13;74.95;100437.81;5089467;28;20070;-75
2024/01/03 02:43:10;;;;;;;7.35;5.75;;;;;;;8.00;74.52;100414.75;5089555;28;20024;-76
2024/01/03 02:45:35;;;;;;;7.28;5.68;;;;;;;8.05;74.77;100391.16;5089660;28;20024;-74
2024/01/03 02:48:01;;;;;;;10.10;5.95;;;;;;;8.15;74.32;100421.66;5089674;28;20106;-74
2024/01/03 02:50:27;;;;;;;10.10;6.03;;;;;;;8.27;74.21;100417.19;5089470;28;20036;-75
2024/01/03 02:52:53;;;;;;;7.55;5.95;;;;;;;8.30;73.82;100423.22;5089661;28;20073;-76
2024/01/03 02:55:18;;;;;;;9.00;5.80;;;;;;;8.27;73.59;100418.06;5089330;28;20028;-75
2024/01/03 02:57:44;;;;;;;14.70;7.18;;;;;;;8.19;73.34;100391.00;5089264;28;20031;-75
2024/01/03 03:00:10;;;;;;;11.93;7.30;;;;;;;8.36;73.67;100416.53;5090467;28;20071;-74
2024/01/03 03:02:36;;;;;;;10.45;7.05;;;;;;;8.35;73.72;100425.56;5089643;28;20024;-75
2024/01/03 03:05:02;;;;;;;9.40;6.35;;;;;;;8.31;73.57;100414.22;5089727;28;20098;-77
2024/01/03 03:07:27;;;;;;;9.48;6.57;;;;;;;8.47;73.47;100441.53;5093983;28;20031;-76
2024/01/03 03:09:53;;;;;;;12.57;6.65;;;;;;;8.45;73.44;100435.44;5090805;28;20028;-76
2024/01/03 03:12:18;;;;;;;13.43;8.18;;;;;;;8.33;73.67;100412.25;5088865;28;20028;-74
2024/01/03 03:14:44;;;;;;;9.35;6.95;;;;;;;8.40;73.73;100408.16;5088838;28;20028;-74
2024/01/03 03:17:10;;;;;;;12.57;7.70;;;;;;;8.57;73.59;100426.47;5088668;28;20020;-76
2024/01/03 03:19:35;;;;;;;9.70;6.60;;;;;;;8.55;73.37;100423.06;5088810;28;20070;-75
2024/01/03 03:22:01;;;;;;;10.77;6.35;;;;;;;8.55;72.97;100433.78;5088419;28;20072;-73
2024/01/03 03:24:27;;;;;;;10.25;6.80;;;;;;;8.52;73.25;100428.66;5088696;28;20032;-77
2024/01/03 03:26:53;;;;;;;9.95;6.78;;;;;;;8.42;73.37;100424.97;5088417;28;20417;-75
2024/01/03 03:29:19;;;;;;;10.57;8.43;;;;;;;8.47;73.19;100428.13;5088874;28;20028;-75
2024/01/03 03:31:44;;;;;;;12.55;7.45;;;;;;;8.39;73.69;100405.56;5089081;28;20031;-75
2024/01/03 03:34:10;;;;;;;11.43;7.22;;;;;;;8.49;73.81;100417.31;5088462;28;20082;-74
2024/01/03 03:36:35;;;;;;;10.95;7.35;;;;;;;8.52;73.83;100412.59;5088510;28;20103;-75
2024/01/03 03:39:01;;;;;;;11.90;8.38;;;;;;;8.45;73.63;100408.66;5088056;28;20057;-75
2024/01/03 03:41:27;;;;;;;13.02;7.93;;;;;;;8.48;73.63;100405.75;5088494;28;20154;-77
2024/01/03 03:43:52;;;;;;;11.85;8.73;;;;;;;8.37;74.72;100388.78;5088742;28;20407;-75
2024/01/03 03:46:18;;;;;;;11.90;8.38;;;;;;;8.47;74.70;100400.50;5088531;28;20480;-76
2024/01/03 03:48:44;;;;;;;13.57;8.18;;;;;;;8.48;74.46;100400.38;5088723;28;20032;-74
2024/01/03 03:51:10;;;;;;;12.70;8.88;;;;;;;8.55;74.65;100407.00;5089237;28;20629;-76
2024/01/03 03:53:35;;;;;;;13.43;8.30;;;;;;;8.38;75.01;100402.03;5088626;28;20024;-75
2024/01/03 03:56:01;;;;;;;17.17;9.38;;;;;;;8.37;74.93;100394.13;5090696;28;20024;-75
2024/01/03 03:58:26;;;;;;;13.93;9.27;;;;;;;8.30;75.20;100353.56;5095475;28;20086;-74
2024/01/03 04:00:52;;;;;;;10.23;7.90;;;;;;;8.52;75.67;100388.47;5088731;28;20201;-76
2024/01/03 04:03:17;;;;;;;15.18;8.55;;;;;;;8.45;75.64;100356.88;5088056;28;20432;-74
2024/01/03 04:05:43;;;;;;;12.45;8.55;;;;;;;8.70;75.89;100384.34;5085560;28;20101;-74
2024/01/03 04:08:09;;;;;;;14.48;8.70;;;;;;;8.75;75.18;100384.00;5087779;28;20489;-75
2024/01/03 04:10:34;;;;;;;11.52;8.48;;;;;;;8.84;75.10;100379.75;5087665;28;20144;-74
2024/01/03 04:13:00;;;;;;;22.15;11.10;;;;;;;8.81;75.11;100374.63;5088059;28;20032;-77
2024/01/03 04:15:26;;;;;;;13.98;8.95;;;;;;;8.87;75.13;100384.88;5086788;28;20103;-76
2024/01/03 04:17:51;;;;;;;17.13;9.70;;;;;;;8.82;75.01;100369.13;5087816;28;20117;-74
2024/01/03 04:20:17;;;;;;;12.68;8.50;;;;;;;8.93;74.71;100379.88;5087674;28;20028;-75
2024/01/03 04:22:44;;;;;;;17.67;9.95;;;;;;;8.98;74.41;100383.06;5087525;28;20032;-75
2024/01/03 04:25:10;;;;;;;18.63;10.75;;;;;;;9.10;74.44;100391.97;5087579;28;20038;-76
2024/01/03 04:27:36;;;;;;;15.40;10.02;;;;;;;8.90;74.22;100352.47;5087784;28;20020;-75
2024/01/03 04:30:03;;;;;;;24.58;10.73;;;;;;;9.06;74.37;100387.81;5088411;28;20039;-76
2024/01/03 04:32:29;;;;;;;15.90;11.25;;;;;;;9.05;74.26;100378.06;5087864;28;20056;-76
2024/01/03 04:34:55;;;;;;;16.50;11.55;;;;;;;8.91;74.37;100355.00;5087701;28;20028;-73
2024/01/03 04:37:20;;;;;;;18.38;11.68;;;;;;;9.11;74.56;100374.91;5087775;28;20158;-74
2024/01/03 04:39:46;;;;;;;17.40;10.73;;;;;;;9.14;74.30;100382.72;5068510;28;20059;-74
2024/01/03 04:42:11;;;;;;;19.40;12.40;;;;;;;8.93;74.41;100352.22;5087300;28;20058;-74
2024/01/03 04:44:37;;;;;;;23.63;14.90;;;;;;;9.08;74.75;100377.84;5087987;28;20024;-75
2024/01/03 04:47:03;;;;;;;22.85;14.13;;;;;;;9.06;74.63;100382.44;5089471;28;20092;-76
2024/01/03 04:49:29;;;;;;;25.77;15.90;;;;;;;9.02;75.00;100368.41;5089839;28;20081;-73
2024/01/03 04:51:55;;;;;;;31.77;17.13;;;;;;;8.92;75.22;100347.81;5088113;28;20032;-74
2024/01/03 04:54:20;;;;;;;42.63;21.25;;;;;;;9.08;75.57;100359.06;5087349;28;20180;-73
2024/01/03 04:56:47;;;;;;;37.15;21.83;;;;;;;9.13;75.53;100362.22;5087667;28;20111;-76
2024/01/03 04:59:12;;;;;;;39.20;21.48;;;;;;;9.15;75.21;100368.28;5087597;28;20024;-75
2024/01/03 05:01:39;;;;;;;26.92;16.33;;;;;;;9.19;75.62;100367.09;5087487;28;20050;-75
2024/01/03 05:04:05;;;;;;;31.70;19.50;;;;;;;8.92;75.71;100311.13;5086690;28;20032;-74
2024/01/03 05:06:31;;;;;;;31.10;16.88;;;;;;;9.30;75.69;100362.56;5087006;28;20024;-73
2024/01/03 05:08:56;;;;;;;26.52;17.90;;;;;;;9.34;75.76;100356.94;5087089;28;20537;-75
2024/01/03 05:11:22;;;;;;;22.98;16.10;;;;;;;9.36;75.93;100353.16;5086898;28;20404;-75
2024/01/03 05:13:47;;;;;;;27.67;17.73;;;;;;;9.18;75.80;100325.97;5087297;28;20036;-75
2024/01/03 05:16:14;;;;;;;31.67;18.70;;;;;;;9.19;75.75;100321.47;5087230;28;20125;-76
2024/01/03 05:18:39;;;;;;;26.30;18.13;;;;;;;9.42;75.56;100344.59;5087379;28;20024;-75
2024/01/03 05:21:06;;;;;;;32.72;18.10;;;;;;;9.48;75.87;100352.16;5084970;28;20020;-76
2024/01/03 05:23:32;;;;;;;32.63;19.83;;;;;;;9.32;75.80;100322.19;5084085;28;20082;-75
2024/01/03 05:25:57;;;;;;;34.05;20.23;;;;;;;9.54;76.42;100340.09;5087182;28;20071;-76
2024/01/03 05:28:23;;;;;;;29.88;19.05;;;;;;;9.65;76.23;100340.91;5087477;28;20024;-76
2024/01/03 05:30:48;;;;;;;28.48;17.55;;;;;;;9.61;75.99;100317.97;5086303;28;20496;-75
2024/01/03 05:33:14;;;;;;;26.88;17.85;;;;;;;9.69;75.28;100326.25;5090550;28;20099;-77
2024/01/03 05:35:39;;;;;;;27.48;18.25;;;;;;;9.72;75.37;100331.34;5090986;28;20036;-77
2024/01/03 05:38:05;;;;;;;32.90;20.77;;;;;;;9.83;74.94;100339.41;5095663;28;20024;-78
2024/01/03 05:40:30;;;;;;;32.08;18.60;;;;;;;9.60;75.31;100302.00;5098719;28;20032;-76
2024/01/03 05:42:56;;;;;;;27.52;19.15;;;;;;;9.87;75.18;100340.00;5091422;28;20376;-74
2024/01/03 05:45:21;;;;;;;31.55;18.50;;;;;;;9.75;74.98;100323.06;5090942;28;20420;-76
2024/01/03 05:47:47;;;;;;;25.88;19.15;;;;;;;9.90;74.95;100349.63;5090174;28;20369;-76
2024/01/03 05:50:12;;;;;;;30.98;20.98;;;;;;;9.90;74.99;100330.84;5088913;28;20404;-76
2024/01/03 05:52:38;;;;;;;32.72;19.20;;;;;;;9.92;75.26;100310.91;5090688;28;20046;-77
2024/01/03 05:55:06;;;;;;;26.55;18.73;;;;;;;10.01;74.96;100309.28;5090787;28;20051;-76
2024/01/03 05:57:32;;;;;;;29.77;18.80;;;;;;;9.97;74.75;100313.22;5090330;28;20024;-80
2024/01/03 05:59:58;;;;;;;26.05;18.85;;;;;;;9.99;74.34;100314.81;5090939;28;20042;-79
2024/01/03 06:02:23;;;;;;;34.97;20.35;;;;;;;10.02;74.93;100337.88;5090963;28;20020;-76
2024/01/03 06:04:49;;;;;;;31.73;20.65;;;;;;;10.04;74.62;100333.22;5091109;28;20061;-77
2024/01/03 06:07:14;;;;;;;33.15;23.08;;;;;;;10.04;74.64;100319.78;5090967;28;20028;-75
2024/01/03 06:09:40;;;;;;;38.03;21.08;;;;;;;10.06;74.85;100329.41;5091415;28;20028;-76
2024/01/03 06:12:06;;;;;;;42.53;24.25;;;;;;;10.02;74.86;100316.38;5090871;28;20115;-76
2024/01/03 06:14:31;;;;;;;34.80;22.25;;;;;;;10.13;75.06;100332.44;5090459;28;20031;-76
2024/01/03 06:16:57;;;;;;;42.05;23.70;;;;;;;10.02;74.94;100311.00;5091464;28;20066;-78
2024/01/03 06:19:22;;;;;;;35.70;22.98;;;;;;;10.23;75.29;100325.34;5092071;28;20036;-76
2024/01/03 06:21:48;;;;;;;37.40;23.48;;;;;;;10.11;75.14;100307.53;5090945;28;20598;-76
2024/01/03 06:24:13;;;;;;;41.85;24.73;;;;;;;10.17;74.71;100313.28;5090922;28;20024;-77
2024/01/03 06:26:39;;;;;;;38.03;25.25;;;;;;;10.26;74.72;100325.09;5090606;28;20043;-77
2024/01/03 06:29:04;;;;;;;51.78;27.48;;;;;;;10.32;74.70;100338.00;5097474;28;20031;-76
2024/01/03 06:31:30;;;;;;;42.28;26.55;;;;;;;10.27;74.64;100322.25;5095072;28;20024;-74
2024/01/03 06:33:56;;;;;;;38.63;24.60;;;;;;;10.18;74.24;100295.34;5089428;28;20030;-73
2024/01/03 06:36:21;;;;;;;37.15;23.80;;;;;;;10.38;74.24;100326.72;5089689;28;20052;-75
2024/01/03 06:38:47;;;;;;;43.30;27.40;;;;;;;10.41;74.31;100314.84;5089690;28;20028;-76
2024/01/03 06:41:12;;;;;;;45.08;29.35;;;;;;;10.39;74.49;100306.94;5089994;28;20040;-76
2024/01/03 06:43:38;;;;;;;50.33;31.55;;;;;;;10.34;74.62;100296.56;5089292;28;20032;-75
2024/01/03 06:46:04;;;;;;;46.22;28.88;;;;;;;10.56;74.38;100317.06;5088669;28;20032;-76
2024/01/03 06:48:29;;;;;;;61.50;33.90;;;;;;;10.57;74.42;100310.72;5089560;28;20461;-74
2024/01/03 06:50:55;;;;;;;80.47;46.78;;;;;;;10.56;74.11;100306.31;5088819;28;20447;-77
2024/01/03 06:53:20;;;;;;;65.53;39.22;;;;;;;10.63;74.18;100303.97;5089676;28;20026;-75
2024/01/03 06:55:46;;;;;;;64.90;40.08;;;;;;;10.59;73.40;100292.63;5089410;28;20086;-75
2024/01/03 06:58:11;;;;;;;49.05;31.80;;;;;;;10.66;73.74;100280.34;5088758;28;20074;-76
2024/01/03 07:00:37;;;;;;;54.33;35.28;;;;;;;10.65;73.68;100278.63;5088199;28;20032;-76
2024/01/03 07:03:03;;;;;;;56.28;33.33;;;;;;;10.74;73.56;100272.44;5089098;28;20024;-76
2024/01/03 07:05:29;;;;;;;52.33;29.42;;;;;;;10.71;73.21;100272.72;5089371;28;20052;-74
2024/01/03 07:07:56;;;;;;;47.03;30.38;;;;;;;10.63;73.49;100253.72;5089562;28;20059;-77
2024/01/03 07:10:22;;;;;;;51.13;32.38;;;;;;;10.72;73.30;100263.69;5089154;28;20028;-74
2024/01/03 07:12:48;;;;;;;62.08;33.55;;;;;;;10.78;73.28;100273.91;5087717;28;20012;-74
2024/01/03 07:15:17;;;;;;;56.78;36.65;;;;;;;10.79;73.54;100264.00;5088965;28;20711;-75
2024/01/03 07:17:44;;;;;;;61.60;36.20;;;;;;;10.78;73.59;100271.22;5092921;28;20027;-75
2024/01/03 07:20:10;;;;;;;60.63;33.22;;;;;;;10.79;73.43;100266.69;5095679;28;20143;-76
2024/01/03 07:22:36;;;;;;;66.28;36.10;;;;;;;10.85;73.83;100269.69;5090292;28;20062;-74
2024/01/03 07:25:01;;;;;;;72.75;39.22;;;;;;;10.78;73.31;100247.00;5092695;28;20028;-75
2024/01/03 07:27:27;;;;;;;77.28;41.58;;;;;;;10.77;73.84;100234.53;5089699;28;20031;-76
2024/01/03 07:29:53;;;;;;;78.78;42.47;;;;;;;10.98;72.96;100249.75;5088467;28;20024;-75
2024/01/03 07:32:19;;;;;;;118.22;50.38;;;;;;;10.98;72.84;100244.38;5088689;28;20031;-75
2024/01/03 07:34:44;;;;;;;85.40;46.35;;;;;;;11.01;72.39;100246.81;5088678;28;20035;-75
2024/01/03 07:37:10;;;;;;;87.88;47.95;;;;;;;11.05;71.62;100238.31;5088534;28;20396;-78
2024/01/03 07:39:36;;;;;;;91.03;45.17;;;;;;;11.01;71.23;100242.25;5088646;28;20024;-75
2024/01/03 07:42:01;;;;;;;79.97;48.00;;;;;;;10.86;70.81;100217.56;5088802;28;20024;-75
2024/01/03 07:44:33;;;;;;;95.20;47.58;;;;;;;10.84;71.17;100221.38;5088261;28;20032;-76
2024/01/03 07:46:59;;;;;;;99.85;47.53;;;;;;;10.91;70.71;100244.06;5087568;28;20035;-76
2024/01/03 07:49:24;;;;;;;101.07;49.40;;;;;;;10.85;70.51;100253.53;5088441;28;20044;-75
2024/01/03 07:51:51;;;;;;;90.07;45.83;;;;;;;10.79;70.82;100254.06;5088985;28;20032;-75
2024/01/03 07:54:17;;;;;;;84.78;43.45;;;;;;;10.72;71.23;100244.00;5088408;28;20042;-74
2024/01/03 07:56:43;;;;;;;89.57;44.15;;;;;;;10.61;71.40;100234.16;5088002;28;20505;-77
2024/01/03 07:59:08;;;;;;;88.47;42.45;;;;;;;10.78;71.57;100252.38;5088532;28;20490;-77
2024/01/03 08:01:35;;;;;;;83.18;44.47;;;;;;;10.80;71.80;100247.69;5089507;28;20034;-76
2024/01/03 08:04:01;;;;;;;85.57;44.95;;;;;;;10.83;71.85;100249.25;5089149;28;20038;-77
2024/01/03 08:06:26;;;;;;;94.00;46.88;;;;;;;10.87;71.58;100242.63;5089883;28;20020;-74
2024/01/03 08:08:52;;;;;;;99.03;50.53;;;;;;;10.80;72.32;100245.00;5095381;28;20581;-77
2024/01/03 08:11:17;;;;;;;89.18;49.10;;;;;;;10.86;71.90;100244.47;5095863;28;20474;-75
2024/01/03 08:13:44;;;;;;;88.00;49.70;;;;;;;10.83;72.40;100233.13;5088172;28;20024;-76
2024/01/03 08:16:12;;;;;;;89.45;42.03;;;;;;;10.89;72.02;100229.88;5085120;28;20517;-75
2024/01/03 08:18:39;;;;;;;87.22;43.10;;;;;;;10.70;72.68;100246.81;5085054;28;20040;-78
2024/01/03 08:21:04;;;;;;;82.60;42.10;;;;;;;10.69;72.78;100234.34;5085104;28;20035;-76
2024/01/03 08:23:31;;;;;;;81.70;42.08;;;;;;;10.67;73.05;100230.09;5085140;28;20076;-77
2024/01/03 08:25:56;;;;;;;85.45;42.00;;;;;;;10.82;73.07;100237.66;5085369;28;20046;-75
2024/01/03 08:28:22;;;;;;;68.60;43.50;;;;;;;10.92;73.71;100248.44;5085123;28;20114;-76
2024/01/03 08:30:48;;;;;;;66.53;36.33;;;;;;;11.03;73.52;100247.50;5085320;28;20051;-75
2024/01/03 08:33:14;;;;;;;65.95;39.55;;;;;;;11.11;73.16;100242.28;5085407;28;20047;-76
2024/01/03 08:35:39;;;;;;;52.70;33.30;;;;;;;11.19;73.81;100239.78;5085428;28;20737;-74
2024/01/03 08:38:05;;;;;;;54.92;34.63;;;;;;;11.35;73.40;100245.44;5084833;28;20032;-76
2024/01/03 08:40:30;;;;;;;69.97;35.47;;;;;;;11.25;73.06;100221.19;5085118;28;20036;-76
2024/01/03 08:42:56;;;;;;;55.85;32.90;;;;;;;11.49;72.88;100242.38;5084914;28;20484;-75
2024/01/03 08:45:22;;;;;;;58.95;34.08;;;;;;;11.54;73.21;100213.16;5085095;28;20032;-77
2024/01/03 08:47:48;;;;;;;58.22;30.60;;;;;;;11.57;72.61;100202.09;5087483;28;20104;-77
2024/01/03 08:50:13;;;;;;;53.45;29.83;;;;;;;11.74;72.26;100204.09;5087294;28;20115;-75
2024/01/03 08:52:39;;;;;;;54.55;29.65;;;;;;;11.90;72.14;100217.00;5088900;28;20055;-74
2024/01/03 08:55:04;;;;;;;45.28;27.42;;;;;;;11.99;71.74;100225.09;5088176;28;20032;-75
2024/01/03 08:57:31;;;;;;;40.60;24.95;;;;;;;11.98;71.85;100196.47;5093582;28;20102;-75
2024/01/03 08:59:57;;;;;;;50.85;27.55;;;;;;;11.92;71.14;100180.00;5095574;28;20541;-75
2024/01/03 09:02:23;;;;;;;39.00;24.20;;;;;;;12.14;71.27;100197.69;5087655;28;20020;-76
2024/01/03 09:04:48;;;;;;;37.13;22.80;;;;;;;12.23;70.92;100194.97;5087856;28;20114;-75
2024/01/03 09:07:14;;;;;;;33.28;19.52;;;;;;;12.24;70.33;100190.41;5090240;28;20024;-77
2024/01/03 09:09:40;;;;;;;34.65;20.98;;;;;;;12.15;69.72;100175.13;5091274;28;20024;-75
2024/01/03 09:12:05;;;;;;;34.90;20.08;;;;;;;12.25;70.33;100198.38;5090850;28;20031;-76
2024/01/03 09:14:31;;;;;;;38.30;19.75;;;;;;;12.17;70.11;100173.97;5092121;28;20101;-75
2024/01/03 09:16:56;;;;;;;28.48;19.35;;;;;;;12.31;70.62;100186.16;5091357;28;20491;-78
2024/01/03 09:19:22;;;;;;;32.40;18.08;;;;;;;12.31;70.16;100192.41;5091961;28;20059;-75
2024/01/03 09:21:47;;;;;;;29.13;20.17;;;;;;;12.27;69.96;100180.19;5092005;28;20106;-75
2024/01/03 09:24:13;;;;;;;34.92;19.13;;;;;;;12.28;70.11;100175.66;5091579;28;20028;-77
2024/01/03 09:26:39;;;;;;;29.48;20.02;;;;;;;12.17;69.91;100151.59;5089923;28;20051;-75
2024/01/03 09:29:05;;;;;;;35.92;20.98;;;;;;;12.38;70.08;100181.88;5091078;28;20035;-75
2024/01/03 09:31:33;;;;;;;39.30;22.10;;;;;;;12.42;69.77;100167.09;5068072;28;20044;-76
2024/01/03 09:33:59;;;;;;;33.00;19.55;;;;;;;12.27;69.49;100149.69;5068349;28;20041;-76
2024/01/03 09:36:25;;;;;;;38.67;21.52;;;;;;;12.36;69.90;100151.50;5068554;28;20131;-75
2024/01/03 09:38:50;;;;;;;35.05;22.98;;;;;;;12.39;70.24;100148.50;5068286;28;20116;-75
2024/01/03 09:41:17;;;;;;;39.35;23.98;;;;;;;12.46;69.92;100149.63;5069399;28;20067;-75
2024/01/03 09:43:43;;;;;;;47.63;23.58;;;;;;;12.49;69.50;100138.53;5069075;28;20032;-76
2024/01/03 09:46:10;;;;;;;34.90;20.85;;;;;;;12.61;69.25;100148.13;5070224;28;20109;-78
2024/01/03 09:48:44;;;;;;;35.35;20.05;;;;;;;12.63;69.61;100143.41;5078248;28;20032;-75
2024/01/03 09:51:09;;;;;;;52.67;22.27;;;;;;;12.67;69.16;100141.28;5072161;28;20548;-77
2024/01/03 09:53:35;;;;;;;38.55;21.90;;;;;;;12.54;69.10;100117.34;5068395;28;20051;-80
2024/01/03 09:56:01;;;;;;;44.78;24.75;;;;;;;12.66;69.13;100135.03;5067801;28;20155;-78
2024/01/03 09:58:27;;;;;;;41.08;22.20;;;;;;;12.72;68.80;100120.94;5051403;28;20060;-81
2024/01/03 10:00:53;;;;;;;37.85;21.45;;;;;;;12.77;69.12;100129.44;5066444;28;20032;-78
2024/01/03 10:03:18;;;;;;;80.53;23.63;;;;;;;12.83;69.40;100112.66;5088514;28;20419;-79
2024/01/03 10:05:44;;;;;;;42.47;21.58;;;;;;;12.88;69.35;100094.13;5087727;28;20044;-78
2024/01/03 10:08:17;;;;;;;36.55;21.50;;;;;;;12.91;68.54;100083.03;5089124;28;20108;-76
2024/01/03 10:10:46;;;;;;;31.20;20.52;;;;;;;12.90;68.62;100075.94;5089618;28;20044;-81
2024/01/03 10:13:17;;;;;;;49.05;23.83;;;;;;;12.89;68.74;100074.25;5089224;28;20031;-80
2024/01/03 10:15:44;;;;;;;39.17;22.67;;;;;;;12.84;68.96;100065.75;5088974;28;20051;-78
2024/01/03 10:18:11;;;;;;;35.15;22.10;;;;;;;12.88;69.35;100077.94;5086832;28;20500;-77
2024/01/03 10:20:37;;;;;;;36.15;21.85;;;;;;;12.88;69.55;100086.03;5087896;28;20037;-77
2024/01/03 10:23:13;;;;;;;39.33;22.02;;;;;;;12.95;69.62;100083.59;5087885;28;20554;-75
2024/01/03 10:25:41;;;;;;;51.25;22.45;;;;;;;13.16;69.14;100086.00;5087627;28;20575;-78
2024/01/03 10:28:08;;;;;;;63.95;21.35;;;;;;;13.20;68.60;100060.41;5088253;28;20024;-76
2024/01/03 10:30:34;;;;;;;40.25;23.48;;;;;;;13.30;68.13;100040.41;5071645;28;20064;-77
2024/01/03 10:33:02;;;;;;;32.28;20.33;;;;;;;13.46;67.44;100051.34;5088335;28;20067;-76
2024/01/03 10:35:32;;;;;;;34.83;20.15;;;;;;;13.43;66.22;100053.50;5089216;28;20150;-77
2024/01/03 10:38:01;;;;;;;33.92;19.25;;;;;;;13.34;66.36;100024.72;5105031;28;20143;-77
2024/01/03 10:40:29;;;;;;;66.25;22.33;;;;;;;13.47;66.09;100041.38;5102138;28;20449;-77
2024/01/03 10:42:55;;;;;;;68.25;23.85;;;;;;;13.57;66.54;100042.13;5089745;28;20500;-78
2024/01/03 10:45:22;;;;;;;70.35;23.02;;;;;;;13.60;66.38;100029.16;5089946;28;20038;-76
2024/01/03 10:47:48;;;;;;;51.17;20.92;;;;;;;13.60;65.68;100031.88;5088953;28;20483;-78
2024/01/03 10:50:14;;;;;;;40.22;23.27;;;;;;;13.65;64.85;100028.69;5089452;28;20036;-77
2024/01/03 10:52:42;;;;;;;68.93;24.02;;;;;;;13.54;64.65;100010.03;5088426;28;20126;-79
2024/01/03 10:55:24;;;;;;;43.53;22.05;;;;;;;13.55;64.59;100014.41;5089251;28;20036;-80
2024/01/03 10:58:01;;;;;;;58.88;24.27;;;;;;;13.58;64.68;100019.50;5088754;28;20020;-79
2024/01/03 11:00:30;;;;;;;40.60;20.73;;;;;;;13.50;64.70;100001.41;5088931;28;20412;-77
2024/01/03 11:03:20;;;;;;;44.10;19.33;;;;;;;13.67;64.53;100032.06;5089529;28;20095;-76
2024/01/03 11:06:08;;;;;;;44.30;18.85;;;;;;;13.70;64.60;100025.50;5089775;28;20021;-75
2024/01/03 11:08:57;;;;;;;40.33;20.30;;;;;;;13.74;64.63;100022.31;5089176;28;20039;-79
2024/01/03 11:11:29;;;;;;;89.13;24.40;;;;;;;13.79;64.36;100024.56;5089349;28;20024;-75
2024/01/03 11:13:55;;;;;;;38.10;18.75;;;;;;;13.77;63.91;100013.88;5087491;28;20395;-75